sensor_id;sensor_type;location;lat;lon;timestamp;temperature;humidity
8420;DHT22;4247;48.550;8.822;2023-03-15T00:00:23;2.40;99.90
8420;DHT22;4247;48.550;8.822;2023-03-15T00:02:49;2.40;99.90
8420;DHT22;4247;48.550;8.822;2023-03-15T00:05:16;2.40;99.90
8420;DHT22;4247;48.550;8.822;2023-03-15T00:07:43;2.30;99.90
8420;DHT22;4247;48.550;8.822;2023-03-15T00:10:10;2.30;99.90
8420;DHT22;4247;48.550;8.822;2023-03-15T00:12:38;2.30;99.90
8420;DHT22;4247;48.550;8.822;2023-03-15T00:15:07;2.20;99.90
8420;DHT22;4247;48.550;8.822;2023-03-15T00:17:34;2.20;99.90
8420;DHT22;4247;48.550;8.822;2023-03-15T00:20:01;2.20;99.90
8420;DHT22;4247;48.550;8.822;2023-03-15T00:22:28;2.20;99.90
8420;DHT22;4247;48.550;8.822;2023-03-15T00:24:55;2.20;99.90
8420;DHT22;4247;48.550;8.822;2023-03-15T00:27:21;2.10;99.90
8420;DHT22;4247;48.550;8.822;2023-03-15T00:29:49;2.20;99.90
8420;DHT22;4247;48.550;8.822;2023-03-15T00:32:16;2.10;99.90
8420;DHT22;4247;48.550;8.822;2023-03-15T00:34:43;2.10;99.90
8420;DHT22;4247;48.550;8.822;2023-03-15T00:37:13;2.10;99.90
8420;DHT22;4247;48.550;8.822;2023-03-15T00:39:41;2.10;99.90
8420;DHT22;4247;48.550;8.822;2023-03-15T00:42:10;2.10;99.90
8420;DHT22;4247;48.550;8.822;2023-03-15T00:44:36;2.10;99.90
8420;DHT22;4247;48.550;8.822;2023-03-15T00:47:04;2.00;99.90
8420;DHT22;4247;48.550;8.822;2023-03-15T00:49:31;2.00;99.90
8420;DHT22;4247;48.550;8.822;2023-03-15T00:51:58;1.90;99.90
8420;DHT22;4247;48.550;8.822;2023-03-15T00:54:24;1.90;99.90
8420;DHT22;4247;48.550;8.822;2023-03-15T00:56:51;1.90;99.90
8420;DHT22;4247;48.550;8.822;2023-03-15T00:59:18;1.90;99.90
8420;DHT22;4247;48.550;8.822;2023-03-15T01:01:46;1.90;99.90
8420;DHT22;4247;48.550;8.822;2023-03-15T01:04:14;2.00;99.90
8420;DHT22;4247;48.550;8.822;2023-03-15T01:06:41;2.00;99.90
8420;DHT22;4247;48.550;8.822;2023-03-15T01:09:08;2.00;99.90
8420;DHT22;4247;48.550;8.822;2023-03-15T01:11:35;2.00;99.90
8420;DHT22;4247;48.550;8.822;2023-03-15T01:14:02;2.00;99.90
8420;DHT22;4247;48.550;8.822;2023-03-15T01:16:30;2.00;99.90
8420;DHT22;4247;48.550;8.822;2023-03-15T01:18:57;1.90;99.90
8420;DHT22;4247;48.550;8.822;2023-03-15T01:21:26;1.90;99.90
8420;DHT22;4247;48.550;8.822;2023-03-15T01:23:53;1.90;99.90
8420;DHT22;4247;48.550;8.822;2023-03-15T01:26:20;1.90;99.90
8420;DHT22;4247;48.550;8.822;2023-03-15T01:28:47;1.80;99.90
8420;DHT22;4247;48.550;8.822;2023-03-15T01:31:17;1.80;99.90
8420;DHT22;4247;48.550;8.822;2023-03-15T01:33:44;1.80;99.90
8420;DHT22;4247;48.550;8.822;2023-03-15T01:36:11;1.70;99.90
8420;DHT22;4247;48.550;8.822;2023-03-15T01:38:40;1.70;99.90
8420;DHT22;4247;48.550;8.822;2023-03-15T01:41:07;1.70;99.90
8420;DHT22;4247;48.550;8.822;2023-03-15T01:43:33;1.70;99.90
8420;DHT22;4247;48.550;8.822;2023-03-15T01:46:22;1.70;99.90
8420;DHT22;4247;48.550;8.822;2023-03-15T01:48:55;1.70;99.90
8420;DHT22;4247;48.550;8.822;2023-03-15T01:51:27;1.60;99.90
8420;DHT22;4247;48.550;8.822;2023-03-15T01:53:59;1.60;99.90
8420;DHT22;4247;48.550;8.822;2023-03-15T01:56:28;1.50;99.90
8420;DHT22;4247;48.550;8.822;2023-03-15T01:58:56;1.50;99.90
8420;DHT22;4247;48.550;8.822;2023-03-15T02:01:24;1.50;99.90
8420;DHT22;4247;48.550;8.822;2023-03-15T02:03:55;1.50;99.90
8420;DHT22;4247;48.550;8.822;2023-03-15T02:06:23;1.50;99.90
8420;DHT22;4247;48.550;8.822;2023-03-15T02:08:54;1.50;99.90
8420;DHT22;4247;48.550;8.822;2023-03-15T02:11:25;1.40;99.90
8420;DHT22;4247;48.550;8.822;2023-03-15T02:13:54;1.40;99.90
8420;DHT22;4247;48.550;8.822;2023-03-15T02:16:24;1.40;99.90
8420;DHT22;4247;48.550;8.822;2023-03-15T02:18:51;1.40;99.90
8420;DHT22;4247;48.550;8.822;2023-03-15T02:21:26;1.30;99.90
8420;DHT22;4247;48.550;8.822;2023-03-15T02:24:03;1.30;99.90
8420;DHT22;4247;48.550;8.822;2023-03-15T02:26:39;1.30;99.90
8420;DHT22;4247;48.550;8.822;2023-03-15T02:29:09;1.30;99.90
8420;DHT22;4247;48.550;8.822;2023-03-15T02:31:36;1.30;99.90
8420;DHT22;4247;48.550;8.822;2023-03-15T02:34:04;1.30;99.90
8420;DHT22;4247;48.550;8.822;2023-03-15T02:36:33;1.30;99.90
8420;DHT22;4247;48.550;8.822;2023-03-15T02:39:00;1.30;99.90
8420;DHT22;4247;48.550;8.822;2023-03-15T02:41:29;1.20;99.90
8420;DHT22;4247;48.550;8.822;2023-03-15T02:44:02;1.20;99.90
8420;DHT22;4247;48.550;8.822;2023-03-15T02:46:31;1.20;99.90
8420;DHT22;4247;48.550;8.822;2023-03-15T02:48:59;1.20;99.90
8420;DHT22;4247;48.550;8.822;2023-03-15T02:51:28;1.20;99.90
8420;DHT22;4247;48.550;8.822;2023-03-15T02:53:55;1.20;99.90
8420;DHT22;4247;48.550;8.822;2023-03-15T02:56:22;1.20;99.90
8420;DHT22;4247;48.550;8.822;2023-03-15T02:58:49;1.20;99.90
8420;DHT22;4247;48.550;8.822;2023-03-15T03:01:17;1.20;99.90
8420;DHT22;4247;48.550;8.822;2023-03-15T03:03:46;1.30;99.90
8420;DHT22;4247;48.550;8.822;2023-03-15T03:06:14;1.30;99.90
8420;DHT22;4247;48.550;8.822;2023-03-15T03:08:41;1.40;99.90
8420;DHT22;4247;48.550;8.822;2023-03-15T03:11:12;1.40;99.90
8420;DHT22;4247;48.550;8.822;2023-03-15T03:13:39;1.40;99.90
8420;DHT22;4247;48.550;8.822;2023-03-15T03:16:06;1.40;99.90
8420;DHT22;4247;48.550;8.822;2023-03-15T03:18:33;1.50;99.90
8420;DHT22;4247;48.550;8.822;2023-03-15T03:21:02;1.50;99.90
8420;DHT22;4247;48.550;8.822;2023-03-15T03:23:30;1.50;99.90
8420;DHT22;4247;48.550;8.822;2023-03-15T03:25:58;1.40;99.90
8420;DHT22;4247;48.550;8.822;2023-03-15T03:28:27;1.40;99.90
8420;DHT22;4247;48.550;8.822;2023-03-15T03:30:55;1.40;99.90
8420;DHT22;4247;48.550;8.822;2023-03-15T03:33:23;1.40;99.90
8420;DHT22;4247;48.550;8.822;2023-03-15T03:35:49;1.40;99.90
8420;DHT22;4247;48.550;8.822;2023-03-15T03:38:17;1.30;99.90
8420;DHT22;4247;48.550;8.822;2023-03-15T03:40:44;1.40;99.90
8420;DHT22;4247;48.550;8.822;2023-03-15T03:43:11;1.40;99.90
8420;DHT22;4247;48.550;8.822;2023-03-15T03:45:38;1.40;99.90
8420;DHT22;4247;48.550;8.822;2023-03-15T03:48:05;1.40;99.90
8420;DHT22;4247;48.550;8.822;2023-03-15T03:50:31;1.30;99.90
8420;DHT22;4247;48.550;8.822;2023-03-15T03:52:58;1.30;99.90
8420;DHT22;4247;48.550;8.822;2023-03-15T03:55:26;1.30;99.90
8420;DHT22;4247;48.550;8.822;2023-03-15T03:57:53;1.30;99.90
8420;DHT22;4247;48.550;8.822;2023-03-15T04:00:20;1.40;99.90
8420;DHT22;4247;48.550;8.822;2023-03-15T04:02:47;1.40;99.90
8420;DHT22;4247;48.550;8.822;2023-03-15T04:05:13;1.40;99.90
8420;DHT22;4247;48.550;8.822;2023-03-15T04:07:40;1.40;99.90
8420;DHT22;4247;48.550;8.822;2023-03-15T04:10:08;1.40;99.90
8420;DHT22;4247;48.550;8.822;2023-03-15T04:12:40;1.40;99.90
8420;DHT22;4247;48.550;8.822;2023-03-15T04:15:07;1.40;99.90
8420;DHT22;4247;48.550;8.822;2023-03-15T04:17:34;1.30;99.90
8420;DHT22;4247;48.550;8.822;2023-03-15T04:20:01;1.30;99.90
8420;DHT22;4247;48.550;8.822;2023-03-15T04:22:31;1.20;99.90
8420;DHT22;4247;48.550;8.822;2023-03-15T04:24:59;1.20;99.90
8420;DHT22;4247;48.550;8.822;2023-03-15T04:27:26;1.20;99.90
8420;DHT22;4247;48.550;8.822;2023-03-15T04:29:54;1.10;99.90
8420;DHT22;4247;48.550;8.822;2023-03-15T04:32:21;1.10;99.90
8420;DHT22;4247;48.550;8.822;2023-03-15T04:34:48;1.00;99.90
8420;DHT22;4247;48.550;8.822;2023-03-15T04:37:15;1.00;99.90
8420;DHT22;4247;48.550;8.822;2023-03-15T04:39:42;0.90;99.90
8420;DHT22;4247;48.550;8.822;2023-03-15T04:42:10;0.90;99.90
8420;DHT22;4247;48.550;8.822;2023-03-15T04:44:36;0.80;99.90
8420;DHT22;4247;48.550;8.822;2023-03-15T04:47:05;0.80;99.90
8420;DHT22;4247;48.550;8.822;2023-03-15T04:49:32;0.80;99.90
8420;DHT22;4247;48.550;8.822;2023-03-15T04:51:59;0.70;99.90
8420;DHT22;4247;48.550;8.822;2023-03-15T04:54:26;0.80;99.90
8420;DHT22;4247;48.550;8.822;2023-03-15T04:56:52;0.80;99.90
8420;DHT22;4247;48.550;8.822;2023-03-15T04:59:19;0.70;99.90
8420;DHT22;4247;48.550;8.822;2023-03-15T05:01:46;0.70;99.90
8420;DHT22;4247;48.550;8.822;2023-03-15T05:04:15;0.70;99.90
8420;DHT22;4247;48.550;8.822;2023-03-15T05:06:42;0.70;99.90
8420;DHT22;4247;48.550;8.822;2023-03-15T05:09:08;0.70;99.90
8420;DHT22;4247;48.550;8.822;2023-03-15T05:11:44;0.60;99.90
8420;DHT22;4247;48.550;8.822;2023-03-15T05:14:11;0.70;99.90
8420;DHT22;4247;48.550;8.822;2023-03-15T05:16:37;0.60;99.90
8420;DHT22;4247;48.550;8.822;2023-03-15T05:19:04;0.50;99.90
8420;DHT22;4247;48.550;8.822;2023-03-15T05:21:33;0.50;99.90
8420;DHT22;4247;48.550;8.822;2023-03-15T05:24:00;0.50;99.90
8420;DHT22;4247;48.550;8.822;2023-03-15T05:26:26;0.50;99.90
8420;DHT22;4247;48.550;8.822;2023-03-15T05:28:53;0.50;99.90
8420;DHT22;4247;48.550;8.822;2023-03-15T05:31:20;0.50;99.90
8420;DHT22;4247;48.550;8.822;2023-03-15T05:33:47;0.40;99.90
8420;DHT22;4247;48.550;8.822;2023-03-15T05:36:14;0.40;99.90
8420;DHT22;4247;48.550;8.822;2023-03-15T05:38:43;0.50;99.90
8420;DHT22;4247;48.550;8.822;2023-03-15T05:41:10;0.40;99.90
8420;DHT22;4247;48.550;8.822;2023-03-15T05:43:36;0.40;99.90
8420;DHT22;4247;48.550;8.822;2023-03-15T05:46:03;0.40;99.90
8420;DHT22;4247;48.550;8.822;2023-03-15T05:48:30;0.40;99.90
8420;DHT22;4247;48.550;8.822;2023-03-15T05:50:57;0.40;99.90
8420;DHT22;4247;48.550;8.822;2023-03-15T05:53:24;0.40;99.90
8420;DHT22;4247;48.550;8.822;2023-03-15T05:55:52;0.40;99.90
8420;DHT22;4247;48.550;8.822;2023-03-15T05:58:19;0.40;99.90
8420;DHT22;4247;48.550;8.822;2023-03-15T06:00:46;0.40;99.90
8420;DHT22;4247;48.550;8.822;2023-03-15T06:03:13;0.40;99.90
8420;DHT22;4247;48.550;8.822;2023-03-15T06:05:40;0.40;99.90
8420;DHT22;4247;48.550;8.822;2023-03-15T06:08:07;0.40;99.90
8420;DHT22;4247;48.550;8.822;2023-03-15T06:10:34;0.40;99.90
8420;DHT22;4247;48.550;8.822;2023-03-15T06:13:03;0.50;99.90
8420;DHT22;4247;48.550;8.822;2023-03-15T06:15:30;0.50;99.90
8420;DHT22;4247;48.550;8.822;2023-03-15T06:17:57;0.50;99.90
8420;DHT22;4247;48.550;8.822;2023-03-15T06:20:23;0.50;99.90
8420;DHT22;4247;48.550;8.822;2023-03-15T06:22:50;0.50;99.90
8420;DHT22;4247;48.550;8.822;2023-03-15T06:25:17;0.60;99.90
8420;DHT22;4247;48.550;8.822;2023-03-15T06:27:44;0.60;99.90
8420;DHT22;4247;48.550;8.822;2023-03-15T06:30:13;0.60;99.90
8420;DHT22;4247;48.550;8.822;2023-03-15T06:32:39;0.60;99.90
8420;DHT22;4247;48.550;8.822;2023-03-15T06:35:06;0.60;99.90
8420;DHT22;4247;48.550;8.822;2023-03-15T06:37:33;0.70;99.90
8420;DHT22;4247;48.550;8.822;2023-03-15T06:40:01;0.70;99.90
8420;DHT22;4247;48.550;8.822;2023-03-15T06:42:30;0.70;99.90
8420;DHT22;4247;48.550;8.822;2023-03-15T06:44:57;0.70;99.90
8420;DHT22;4247;48.550;8.822;2023-03-15T06:47:25;0.80;99.90
8420;DHT22;4247;48.550;8.822;2023-03-15T06:49:51;0.80;99.90
8420;DHT22;4247;48.550;8.822;2023-03-15T06:52:18;0.80;99.90
8420;DHT22;4247;48.550;8.822;2023-03-15T06:54:45;0.80;99.90
8420;DHT22;4247;48.550;8.822;2023-03-15T06:57:12;0.90;99.90
8420;DHT22;4247;48.550;8.822;2023-03-15T06:59:38;0.90;99.90
8420;DHT22;4247;48.550;8.822;2023-03-15T07:02:05;1.00;99.90
8420;DHT22;4247;48.550;8.822;2023-03-15T07:04:33;1.00;99.90
8420;DHT22;4247;48.550;8.822;2023-03-15T07:07:00;1.00;99.90
8420;DHT22;4247;48.550;8.822;2023-03-15T07:09:27;1.00;99.90
8420;DHT22;4247;48.550;8.822;2023-03-15T07:11:53;1.00;99.90
8420;DHT22;4247;48.550;8.822;2023-03-15T07:14:20;1.10;99.90
8420;DHT22;4247;48.550;8.822;2023-03-15T07:16:47;1.10;99.90
8420;DHT22;4247;48.550;8.822;2023-03-15T07:19:14;1.20;99.90
8420;DHT22;4247;48.550;8.822;2023-03-15T07:21:42;1.20;99.90
8420;DHT22;4247;48.550;8.822;2023-03-15T07:24:08;1.30;99.90
8420;DHT22;4247;48.550;8.822;2023-03-15T07:26:35;1.30;99.90
8420;DHT22;4247;48.550;8.822;2023-03-15T07:29:02;1.30;99.90
8420;DHT22;4247;48.550;8.822;2023-03-15T07:31:28;1.30;99.90
8420;DHT22;4247;48.550;8.822;2023-03-15T07:33:55;1.40;99.90
8420;DHT22;4247;48.550;8.822;2023-03-15T07:36:22;1.50;99.90
8420;DHT22;4247;48.550;8.822;2023-03-15T07:38:50;1.50;99.90
8420;DHT22;4247;48.550;8.822;2023-03-15T07:41:17;1.60;99.90
8420;DHT22;4247;48.550;8.822;2023-03-15T07:43:43;1.60;99.90
8420;DHT22;4247;48.550;8.822;2023-03-15T07:46:10;1.70;99.90
8420;DHT22;4247;48.550;8.822;2023-03-15T07:48:37;1.80;99.90
8420;DHT22;4247;48.550;8.822;2023-03-15T07:51:04;1.80;99.90
8420;DHT22;4247;48.550;8.822;2023-03-15T07:53:30;1.90;99.90
8420;DHT22;4247;48.550;8.822;2023-03-15T07:55:58;2.00;99.90
8420;DHT22;4247;48.550;8.822;2023-03-15T07:58:25;2.10;99.90
8420;DHT22;4247;48.550;8.822;2023-03-15T08:00:53;2.20;99.90
8420;DHT22;4247;48.550;8.822;2023-03-15T08:03:20;2.30;99.90
8420;DHT22;4247;48.550;8.822;2023-03-15T08:05:48;2.40;99.90
8420;DHT22;4247;48.550;8.822;2023-03-15T08:08:15;2.50;99.90
8420;DHT22;4247;48.550;8.822;2023-03-15T08:10:43;2.60;99.90
8420;DHT22;4247;48.550;8.822;2023-03-15T08:13:12;2.60;99.90
8420;DHT22;4247;48.550;8.822;2023-03-15T08:15:39;2.80;99.90
8420;DHT22;4247;48.550;8.822;2023-03-15T08:18:06;2.80;99.90
8420;DHT22;4247;48.550;8.822;2023-03-15T08:20:32;2.90;99.90
8420;DHT22;4247;48.550;8.822;2023-03-15T08:22:59;3.00;99.90
8420;DHT22;4247;48.550;8.822;2023-03-15T08:25:27;3.10;99.90
8420;DHT22;4247;48.550;8.822;2023-03-15T08:27:54;3.20;99.90
8420;DHT22;4247;48.550;8.822;2023-03-15T08:30:22;3.20;99.90
8420;DHT22;4247;48.550;8.822;2023-03-15T08:32:49;3.20;99.90
8420;DHT22;4247;48.550;8.822;2023-03-15T08:35:18;3.30;99.90
8420;DHT22;4247;48.550;8.822;2023-03-15T08:37:45;3.30;99.90
8420;DHT22;4247;48.550;8.822;2023-03-15T08:40:13;3.30;99.90
8420;DHT22;4247;48.550;8.822;2023-03-15T08:42:40;3.40;99.90
8420;DHT22;4247;48.550;8.822;2023-03-15T08:45:08;3.50;99.90
8420;DHT22;4247;48.550;8.822;2023-03-15T08:47:37;3.60;99.90
8420;DHT22;4247;48.550;8.822;2023-03-15T08:50:06;3.80;99.90
8420;DHT22;4247;48.550;8.822;2023-03-15T08:52:34;4.00;99.90
8420;DHT22;4247;48.550;8.822;2023-03-15T08:55:01;4.20;99.90
8420;DHT22;4247;48.550;8.822;2023-03-15T08:57:29;4.40;99.90
8420;DHT22;4247;48.550;8.822;2023-03-15T08:59:57;4.50;99.90
8420;DHT22;4247;48.550;8.822;2023-03-15T09:09:04;4.80;99.90
8420;DHT22;4247;48.550;8.822;2023-03-15T09:11:31;4.90;99.90
8420;DHT22;4247;48.550;8.822;2023-03-15T09:13:57;5.10;99.90
8420;DHT22;4247;48.550;8.822;2023-03-15T09:16:24;5.10;99.90
8420;DHT22;4247;48.550;8.822;2023-03-15T09:18:51;5.30;99.90
8420;DHT22;4247;48.550;8.822;2023-03-15T09:21:17;5.20;99.90
8420;DHT22;4247;48.550;8.822;2023-03-15T09:23:44;5.30;99.90
8420;DHT22;4247;48.550;8.822;2023-03-15T09:26:12;5.30;99.90
8420;DHT22;4247;48.550;8.822;2023-03-15T09:28:39;5.30;99.90
8420;DHT22;4247;48.550;8.822;2023-03-15T09:31:06;5.30;99.90
8420;DHT22;4247;48.550;8.822;2023-03-15T09:33:32;5.30;99.90
8420;DHT22;4247;48.550;8.822;2023-03-15T09:35:59;5.40;99.90
8420;DHT22;4247;48.550;8.822;2023-03-15T09:38:26;5.30;99.90
8420;DHT22;4247;48.550;8.822;2023-03-15T09:40:56;5.20;99.90
8420;DHT22;4247;48.550;8.822;2023-03-15T09:43:48;5.20;99.90
8420;DHT22;4247;48.550;8.822;2023-03-15T09:46:24;5.20;99.90
8420;DHT22;4247;48.550;8.822;2023-03-15T09:48:54;5.20;99.90
8420;DHT22;4247;48.550;8.822;2023-03-15T09:51:30;5.10;99.90
8420;DHT22;4247;48.550;8.822;2023-03-15T09:54:02;5.10;99.90
8420;DHT22;4247;48.550;8.822;2023-03-15T09:56:32;5.10;99.90
8420;DHT22;4247;48.550;8.822;2023-03-15T09:59:01;5.20;99.90
8420;DHT22;4247;48.550;8.822;2023-03-15T10:01:30;5.20;99.90
8420;DHT22;4247;48.550;8.822;2023-03-15T10:04:04;5.30;99.90
8420;DHT22;4247;48.550;8.822;2023-03-15T10:06:33;5.40;99.90
8420;DHT22;4247;48.550;8.822;2023-03-15T10:09:05;5.50;99.90
8420;DHT22;4247;48.550;8.822;2023-03-15T10:11:36;5.60;99.90
8420;DHT22;4247;48.550;8.822;2023-03-15T10:14:17;5.80;99.90
8420;DHT22;4247;48.550;8.822;2023-03-15T10:16:46;5.80;99.90
8420;DHT22;4247;48.550;8.822;2023-03-15T10:19:19;5.90;99.90
8420;DHT22;4247;48.550;8.822;2023-03-15T10:21:53;5.80;99.90
8420;DHT22;4247;48.550;8.822;2023-03-15T10:24:27;5.90;99.90
8420;DHT22;4247;48.550;8.822;2023-03-15T10:26:58;5.80;99.90
8420;DHT22;4247;48.550;8.822;2023-03-15T10:29:29;5.90;99.90
8420;DHT22;4247;48.550;8.822;2023-03-15T10:31:56;5.70;99.90
8420;DHT22;4247;48.550;8.822;2023-03-15T10:34:23;5.70;99.90
8420;DHT22;4247;48.550;8.822;2023-03-15T10:36:51;5.70;99.90
8420;DHT22;4247;48.550;8.822;2023-03-15T10:39:20;5.70;99.90
8420;DHT22;4247;48.550;8.822;2023-03-15T10:41:49;5.80;99.90
8420;DHT22;4247;48.550;8.822;2023-03-15T10:44:18;5.80;99.90
8420;DHT22;4247;48.550;8.822;2023-03-15T10:47:00;5.80;99.90
8420;DHT22;4247;48.550;8.822;2023-03-15T10:49:35;5.80;99.90
8420;DHT22;4247;48.550;8.822;2023-03-15T10:52:03;5.90;99.90
8420;DHT22;4247;48.550;8.822;2023-03-15T10:54:31;5.90;99.90
8420;DHT22;4247;48.550;8.822;2023-03-15T10:57:01;5.90;99.90
8420;DHT22;4247;48.550;8.822;2023-03-15T10:59:30;5.90;99.90
8420;DHT22;4247;48.550;8.822;2023-03-15T11:02:23;6.00;99.90
8420;DHT22;4247;48.550;8.822;2023-03-15T11:04:59;6.20;99.90
8420;DHT22;4247;48.550;8.822;2023-03-15T11:07:26;6.40;99.90
8420;DHT22;4247;48.550;8.822;2023-03-15T11:09:57;6.50;99.80
8420;DHT22;4247;48.550;8.822;2023-03-15T11:12:25;6.70;99.60
8420;DHT22;4247;48.550;8.822;2023-03-15T11:14:57;6.80;98.70
8420;DHT22;4247;48.550;8.822;2023-03-15T11:17:30;6.90;99.10
8420;DHT22;4247;48.550;8.822;2023-03-15T11:19:59;6.90;97.10
8420;DHT22;4247;48.550;8.822;2023-03-15T11:22:40;7.10;96.40
8420;DHT22;4247;48.550;8.822;2023-03-15T11:25:11;7.20;97.90
8420;DHT22;4247;48.550;8.822;2023-03-15T11:27:40;7.40;98.00
8420;DHT22;4247;48.550;8.822;2023-03-15T11:30:13;7.40;96.80
8420;DHT22;4247;48.550;8.822;2023-03-15T11:32:42;7.50;96.20
8420;DHT22;4247;48.550;8.822;2023-03-15T11:35:12;7.60;96.80
8420;DHT22;4247;48.550;8.822;2023-03-15T11:37:45;7.70;96.90
8420;DHT22;4247;48.550;8.822;2023-03-15T11:40:17;7.70;95.70
8420;DHT22;4247;48.550;8.822;2023-03-15T11:42:49;7.70;95.00
8420;DHT22;4247;48.550;8.822;2023-03-15T11:45:28;7.70;95.00
8420;DHT22;4247;48.550;8.822;2023-03-15T11:48:02;7.80;95.00
8420;DHT22;4247;48.550;8.822;2023-03-15T11:50:29;7.80;94.80
8420;DHT22;4247;48.550;8.822;2023-03-15T11:52:56;7.80;94.40
8420;DHT22;4247;48.550;8.822;2023-03-15T11:55:28;7.90;94.00
8420;DHT22;4247;48.550;8.822;2023-03-15T11:57:55;7.80;93.80
8420;DHT22;4247;48.550;8.822;2023-03-15T12:03:28;7.70;94.60
8420;DHT22;4247;48.550;8.822;2023-03-15T12:06:00;7.70;93.80
8420;DHT22;4247;48.550;8.822;2023-03-15T12:08:41;7.50;93.60
8420;DHT22;4247;48.550;8.822;2023-03-15T12:11:12;7.40;93.40
8420;DHT22;4247;48.550;8.822;2023-03-15T12:13:50;7.50;95.80
8420;DHT22;4247;48.550;8.822;2023-03-15T12:16:20;7.70;94.80
8420;DHT22;4247;48.550;8.822;2023-03-15T12:18:48;7.80;94.60
8420;DHT22;4247;48.550;8.822;2023-03-15T12:21:20;7.70;93.40
8420;DHT22;4247;48.550;8.822;2023-03-15T12:23:56;7.80;94.30
8420;DHT22;4247;48.550;8.822;2023-03-15T12:26:35;7.90;94.10
8420;DHT22;4247;48.550;8.822;2023-03-15T12:29:12;7.90;93.60
8420;DHT22;4247;48.550;8.822;2023-03-15T12:31:48;7.90;93.90
8420;DHT22;4247;48.550;8.822;2023-03-15T12:34:24;7.90;93.60
8420;DHT22;4247;48.550;8.822;2023-03-15T12:36:55;7.90;93.90
8420;DHT22;4247;48.550;8.822;2023-03-15T12:39:40;7.80;93.40
8420;DHT22;4247;48.550;8.822;2023-03-15T12:44:53;7.70;93.30
8420;DHT22;4247;48.550;8.822;2023-03-15T12:47:20;7.80;93.20
8420;DHT22;4247;48.550;8.822;2023-03-15T12:49:48;7.80;92.90
8420;DHT22;4247;48.550;8.822;2023-03-15T12:52:37;7.80;93.30
8420;DHT22;4247;48.550;8.822;2023-03-15T12:55:13;7.70;92.10
8420;DHT22;4247;48.550;8.822;2023-03-15T12:57:46;7.70;92.10
8420;DHT22;4247;48.550;8.822;2023-03-15T13:00:15;7.70;93.10
8420;DHT22;4247;48.550;8.822;2023-03-15T13:02:44;7.80;93.30
8420;DHT22;4247;48.550;8.822;2023-03-15T13:05:22;7.80;92.70
8420;DHT22;4247;48.550;8.822;2023-03-15T13:07:54;7.80;92.60
8420;DHT22;4247;48.550;8.822;2023-03-15T13:13:28;7.90;92.90
8420;DHT22;4247;48.550;8.822;2023-03-15T13:16:19;8.00;92.40
8420;DHT22;4247;48.550;8.822;2023-03-15T13:18:57;7.90;92.10
8420;DHT22;4247;48.550;8.822;2023-03-15T13:21:31;7.90;91.60
8420;DHT22;4247;48.550;8.822;2023-03-15T13:24:00;7.90;92.50
8420;DHT22;4247;48.550;8.822;2023-03-15T13:26:37;8.00;91.40
8420;DHT22;4247;48.550;8.822;2023-03-15T13:29:11;8.20;92.00
8420;DHT22;4247;48.550;8.822;2023-03-15T13:31:39;8.30;91.80
8420;DHT22;4247;48.550;8.822;2023-03-15T13:34:12;8.40;93.00
8420;DHT22;4247;48.550;8.822;2023-03-15T13:36:42;8.40;92.20
8420;DHT22;4247;48.550;8.822;2023-03-15T13:39:17;8.40;91.80
8420;DHT22;4247;48.550;8.822;2023-03-15T13:41:44;8.30;91.90
8420;DHT22;4247;48.550;8.822;2023-03-15T13:44:17;8.20;91.20
8420;DHT22;4247;48.550;8.822;2023-03-15T13:46:46;8.10;93.10
8420;DHT22;4247;48.550;8.822;2023-03-15T13:49:14;8.10;93.10
8420;DHT22;4247;48.550;8.822;2023-03-15T13:51:43;8.00;92.40
8420;DHT22;4247;48.550;8.822;2023-03-15T13:54:15;7.90;92.60
8420;DHT22;4247;48.550;8.822;2023-03-15T13:56:53;7.80;93.50
8420;DHT22;4247;48.550;8.822;2023-03-15T13:59:22;7.80;93.60
8420;DHT22;4247;48.550;8.822;2023-03-15T14:01:50;7.70;94.00
8420;DHT22;4247;48.550;8.822;2023-03-15T14:04:19;7.60;94.10
8420;DHT22;4247;48.550;8.822;2023-03-15T14:06:49;7.60;93.20
8420;DHT22;4247;48.550;8.822;2023-03-15T14:09:19;7.50;93.90
8420;DHT22;4247;48.550;8.822;2023-03-15T14:12:00;7.50;94.70
8420;DHT22;4247;48.550;8.822;2023-03-15T14:14:28;7.60;94.70
8420;DHT22;4247;48.550;8.822;2023-03-15T14:16:57;7.60;93.50
8420;DHT22;4247;48.550;8.822;2023-03-15T14:19:26;7.60;95.40
8420;DHT22;4247;48.550;8.822;2023-03-15T14:21:56;7.70;94.60
8420;DHT22;4247;48.550;8.822;2023-03-15T14:24:28;7.60;94.50
8420;DHT22;4247;48.550;8.822;2023-03-15T14:26:57;7.80;94.50
8420;DHT22;4247;48.550;8.822;2023-03-15T14:29:28;7.80;93.70
8420;DHT22;4247;48.550;8.822;2023-03-15T14:32:00;7.80;93.90
8420;DHT22;4247;48.550;8.822;2023-03-15T14:34:32;7.70;93.70
8420;DHT22;4247;48.550;8.822;2023-03-15T14:37:03;7.80;94.70
8420;DHT22;4247;48.550;8.822;2023-03-15T14:39:38;7.70;93.90
8420;DHT22;4247;48.550;8.822;2023-03-15T14:42:05;7.60;93.70
8420;DHT22;4247;48.550;8.822;2023-03-15T14:44:32;7.60;93.90
8420;DHT22;4247;48.550;8.822;2023-03-15T14:46:59;7.50;94.70
8420;DHT22;4247;48.550;8.822;2023-03-15T14:49:27;7.50;94.80
8420;DHT22;4247;48.550;8.822;2023-03-15T14:51:57;7.40;95.40
8420;DHT22;4247;48.550;8.822;2023-03-15T14:54:27;7.30;95.40
8420;DHT22;4247;48.550;8.822;2023-03-15T14:56:54;7.20;96.60
8420;DHT22;4247;48.550;8.822;2023-03-15T14:59:21;7.10;98.50
8420;DHT22;4247;48.550;8.822;2023-03-15T15:01:50;6.90;98.30
8420;DHT22;4247;48.550;8.822;2023-03-15T15:04:18;6.80;98.70
8420;DHT22;4247;48.550;8.822;2023-03-15T15:06:46;6.80;99.40
8420;DHT22;4247;48.550;8.822;2023-03-15T15:09:18;6.80;99.90
8420;DHT22;4247;48.550;8.822;2023-03-15T15:11:48;6.70;99.90
8420;DHT22;4247;48.550;8.822;2023-03-15T15:14:15;6.80;99.90
8420;DHT22;4247;48.550;8.822;2023-03-15T15:16:42;6.80;99.90
8420;DHT22;4247;48.550;8.822;2023-03-15T15:19:09;7.00;99.90
8420;DHT22;4247;48.550;8.822;2023-03-15T15:21:37;7.10;99.90
8420;DHT22;4247;48.550;8.822;2023-03-15T15:24:10;7.00;99.90
8420;DHT22;4247;48.550;8.822;2023-03-15T15:26:37;6.90;99.90
8420;DHT22;4247;48.550;8.822;2023-03-15T15:29:07;6.90;99.90
8420;DHT22;4247;48.550;8.822;2023-03-15T15:31:35;6.90;99.90
8420;DHT22;4247;48.550;8.822;2023-03-15T15:34:01;6.90;99.90
8420;DHT22;4247;48.550;8.822;2023-03-15T15:36:30;6.90;99.90
8420;DHT22;4247;48.550;8.822;2023-03-15T15:38:58;6.80;99.90
8420;DHT22;4247;48.550;8.822;2023-03-15T15:41:29;6.70;99.90
8420;DHT22;4247;48.550;8.822;2023-03-15T15:43:57;6.70;99.90
8420;DHT22;4247;48.550;8.822;2023-03-15T15:46:25;6.70;99.90
8420;DHT22;4247;48.550;8.822;2023-03-15T15:48:52;6.60;99.90
8420;DHT22;4247;48.550;8.822;2023-03-15T15:51:24;6.50;99.90
8420;DHT22;4247;48.550;8.822;2023-03-15T15:53:51;6.40;99.90
8420;DHT22;4247;48.550;8.822;2023-03-15T15:56:19;6.40;99.90
8420;DHT22;4247;48.550;8.822;2023-03-15T15:58:47;6.50;99.90
8420;DHT22;4247;48.550;8.822;2023-03-15T16:01:15;6.40;99.90
8420;DHT22;4247;48.550;8.822;2023-03-15T16:03:43;6.40;99.90
8420;DHT22;4247;48.550;8.822;2023-03-15T16:06:15;6.30;99.90
8420;DHT22;4247;48.550;8.822;2023-03-15T16:08:42;6.30;99.90
8420;DHT22;4247;48.550;8.822;2023-03-15T16:11:11;6.20;99.90
8420;DHT22;4247;48.550;8.822;2023-03-15T16:13:38;6.10;99.90
8420;DHT22;4247;48.550;8.822;2023-03-15T16:16:08;6.10;99.90
8420;DHT22;4247;48.550;8.822;2023-03-15T16:18:35;6.10;99.90
8420;DHT22;4247;48.550;8.822;2023-03-15T16:21:03;6.10;99.90
8420;DHT22;4247;48.550;8.822;2023-03-15T16:23:30;6.10;99.90
8420;DHT22;4247;48.550;8.822;2023-03-15T16:25:58;6.00;99.90
8420;DHT22;4247;48.550;8.822;2023-03-15T16:28:24;6.10;99.90
8420;DHT22;4247;48.550;8.822;2023-03-15T16:30:51;6.20;99.90
8420;DHT22;4247;48.550;8.822;2023-03-15T16:33:19;6.20;99.90
8420;DHT22;4247;48.550;8.822;2023-03-15T16:35:46;6.10;99.90
8420;DHT22;4247;48.550;8.822;2023-03-15T16:38:17;6.20;99.90
8420;DHT22;4247;48.550;8.822;2023-03-15T16:40:49;6.00;99.90
8420;DHT22;4247;48.550;8.822;2023-03-15T16:43:17;6.00;99.90